Time,TemperatureF,DewpointF,PressureIn,WindDirection,WindDirectionDegrees,WindSpeedMPH,WindSpeedGustMPH,Humidity,HourlyPrecipIn,Conditions,Clouds,dailyrainin,SoftwareType,DateUTC
2013-01-26 00:01:00,27.2,21.8,29.86,NW,314,2.0,3.0,80,0.00,CLR,CLR,0.00,WeatherDisplay:10.34,2013-01-26 07:01:00,
2013-01-26 00:06:00,27.1,21.7,29.87,WNW,302,1.0,2.0,80,0.00,CLR,CLR,0.00,WeatherDisplay:10.34,2013-01-26 07:06:00,
2013-01-26 00:11:00,27.1,22.0,29.87,NW,309,2.0,3.0,81,0.00,CLR,CLR,0.00,WeatherDisplay:10.34,2013-01-26 07:11:00,
2013-01-26 00:16:00,27.2,22.1,29.87,NW,317,1.0,1.0,81,0.00,CLR,CLR,0.00,WeatherDisplay:10.34,2013-01-26 07:16:00,
2013-01-26 00:21:00,27.2,21.8,29.87,NW,319,0.0,1.0,80,0.00,CLR,CLR,0.00,WeatherDisplay:10.34,2013-01-26 07:21:00,
2013-01-26 00:26:00,27.2,21.8,29.87,WNW,303,3.0,3.0,80,0.00,CLR,CLR,0.00,WeatherDisplay:10.34,2013-01-26 07:26:00,
2013-01-26 00:31:00,27.3,21.9,29.87,NW,316,0.0,0.0,80,0.00,CLR,CLR,0.00,WeatherDisplay:10.34,2013-01-26 07:31:00,
2013-01-26 00:36:00,27.2,21.8,29.87,NW,316,1.0,1.0,80,0.00,CLR,CLR,0.00,WeatherDisplay:10.34,2013-01-26 07:36:00,
2013-01-26 00:41:00,27.1,21.7,29.86,NW,316,0.0,0.0,80,0.00,CLR,CLR,0.00,WeatherDisplay:10.34,2013-01-26 07:41:00,
2013-01-26 00:46:00,27.1,21.7,29.86,NW,316,2.0,2.0,80,0.00,CLR,CLR,0.00,WeatherDisplay:10.34,2013-01-26 07:46:00,
2013-01-26 00:51:00,27.0,21.4,29.86,WSW,253,0.0,1.0,79,0.00,CLR,CLR,0.00,WeatherDisplay:10.34,2013-01-26 07:51:00,
2013-01-26 00:56:00,26.8,21.5,29.86,WNW,299,1.0,1.0,80,0.00,CLR,CLR,0.00,WeatherDisplay:10.34,2013-01-26 07:56:00,
2013-01-26 01:01:00,26.9,21.6,29.85,NNW,343,5.0,5.0,80,0.00,CLR,CLR,0.00,WeatherDisplay:10.34,2013-01-26 08:01:00,
2013-01-26 01:06:00,27.2,21.8,29.85,NNW,329,1.0,1.0,80,0.00,CLR,CLR,0.00,WeatherDisplay:10.34,2013-01-26 08:06:00,
2013-01-26 01:11:00,27.3,21.9,29.86,NNW,329,0.0,0.0,80,0.00,CLR,CLR,0.00,WeatherDisplay:10.34,2013-01-26 08:11:00,
2013-01-26 01:16:00,27.3,21.9,29.86,NNW,329,0.0,0.0,80,0.00,CLR,CLR,0.00,WeatherDisplay:10.34,2013-01-26 08:16:00,
2013-01-26 01:21:00,27.1,21.2,29.87,NNW,329,0.0,0.0,78,0.00,CLR,CLR,0.00,WeatherDisplay:10.34,2013-01-26 08:21:00,
2013-01-26 01:26:00,26.8,20.9,29.87,NNW,329,0.0,1.0,78,0.00,CLR,CLR,0.00,WeatherDisplay:10.34,2013-01-26 08:26:00,
2013-01-26 01:31:00,26.5,20.3,29.86,NNW,329,0.0,1.0,77,0.00,CLR,CLR,0.00,WeatherDisplay:10.34,2013-01-26 08:31:00,
2013-01-26 01:36:00,26.2,20.3,29.86,NNW,329,0.0,1.0,78,0.00,CLR,CLR,0.00,WeatherDisplay:10.34,2013-01-26 08:36:00,
2013-01-26 01:41:00,26.1,20.2,29.86,NNW,329,0.0,0.0,78,0.00,CLR,CLR,0.00,WeatherDisplay:10.34,2013-01-26 08:41:00,
2013-01-26 01:46:00,25.8,19.6,29.86,East,90,1.0,1.0,77,0.00,CLR,CLR,0.00,WeatherDisplay:10.34,2013-01-26 08:46:00,
2013-01-26 01:51:00,25.5,19.9,29.86,West,269,0.0,1.0,79,0.00,CLR,CLR,0.00,WeatherDisplay:10.34,2013-01-26 08:51:00,
2013-01-26 01:56:00,25.4,19.8,29.86,West,269,3.0,3.0,79,0.00,CLR,CLR,0.00,WeatherDisplay:10.34,2013-01-26 08:56:00,
2013-01-26 02:01:00,25.3,20.0,29.85,West,269,0.0,0.0,80,0.00,CLR,CLR,0.00,WeatherDisplay:10.34,2013-01-26 09:01:00,
2013-01-26 02:06:00,25.2,19.9,29.86,West,269,0.0,1.0,80,0.00,CLR,CLR,0.00,WeatherDisplay:10.34,2013-01-26 09:06:00,
2013-01-26 02:11:00,25.2,19.9,29.87,West,269,2.0,2.0,80,0.00,CLR,CLR,0.00,WeatherDisplay:10.34,2013-01-26 09:11:00,
2013-01-26 02:16:00,25.2,20.2,29.86,NW,323,4.0,4.0,81,0.00,CLR,CLR,0.00,WeatherDisplay:10.34,2013-01-26 09:16:00,
2013-01-26 02:21:00,25.2,20.2,29.86,NW,315,0.0,0.0,81,0.00,CLR,CLR,0.00,WeatherDisplay:10.34,2013-01-26 09:21:00,
2013-01-26 02:26:00,25.3,20.3,29.86,NW,315,1.0,1.0,81,0.00,CLR,CLR,0.00,WeatherDisplay:10.34,2013-01-26 09:26:00,
2013-01-26 02:31:00,25.4,20.7,29.86,WNW,292,0.0,0.0,82,0.00,CLR,CLR,0.00,WeatherDisplay:10.34,2013-01-26 09:31:00,
2013-01-26 02:36:00,25.2,19.9,29.86,WNW,292,0.0,0.0,80,0.00,CLR,CLR,0.00,WeatherDisplay:10.34,2013-01-26 09:36:00,
2013-01-26 02:41:00,24.9,19.3,29.85,WNW,292,0.0,1.0,79,0.00,CLR,CLR,0.00,WeatherDisplay:10.34,2013-01-26 09:41:00,
2013-01-26 02:46:00,24.7,19.1,29.85,WNW,292,0.0,0.0,79,0.00,CLR,CLR,0.00,WeatherDisplay:10.34,2013-01-26 09:46:00,
2013-01-26 02:51:00,24.5,19.2,29.85,WNW,298,3.0,5.0,80,0.00,CLR,CLR,0.00,WeatherDisplay:10.34,2013-01-26 09:51:00,
2013-01-26 02:56:00,24.9,20.2,29.85,North,355,0.0,1.0,82,0.00,CLR,CLR,0.00,WeatherDisplay:10.34,2013-01-26 09:56:00,
2013-01-26 03:01:00,25.0,20.3,29.85,North,355,1.0,2.0,82,0.00,CLR,CLR,0.00,WeatherDisplay:10.34,2013-01-26 10:01:00,
2013-01-26 03:06:00,25.1,20.4,29.85,North,355,1.0,2.0,82,0.00,CLR,CLR,0.00,WeatherDisplay:10.34,2013-01-26 10:06:00,
2013-01-26 03:11:00,25.3,20.9,29.84,North,5,2.0,2.0,83,0.00,CLR,CLR,0.00,WeatherDisplay:10.34,2013-01-26 10:11:00,
2013-01-26 03:16:00,25.4,20.7,29.84,West,271,0.0,1.0,82,0.00,CLR,CLR,0.00,WeatherDisplay:10.34,2013-01-26 10:16:00,
2013-01-26 03:21:00,25.4,20.7,29.85,WNW,286,0.0,1.0,82,0.00,CLR,CLR,0.00,WeatherDisplay:10.34,2013-01-26 10:21:00,
2013-01-26 03:26:00,25.6,20.9,29.85,NW,309,0.0,1.0,82,0.00,CLR,CLR,0.00,WeatherDisplay:10.34,2013-01-26 10:26:00,
2013-01-26 03:31:00,25.6,20.9,29.84,NW,309,1.0,2.0,82,0.00,CLR,CLR,0.00,WeatherDisplay:10.34,2013-01-26 10:31:00,
2013-01-26 03:37:00,25.6,20.9,29.84,NNW,341,0.0,1.0,82,0.00,CLR,CLR,0.00,WeatherDisplay:10.34,2013-01-26 10:37:00,
2013-01-26 03:42:00,25.7,21.0,29.85,NNW,341,6.0,7.0,82,0.00,CLR,CLR,0.00,WeatherDisplay:10.34,2013-01-26 10:42:00,
2013-01-26 03:47:00,25.8,21.1,29.85,NNW,346,0.0,1.0,82,0.00,CLR,CLR,0.00,WeatherDisplay:10.34,2013-01-26 10:47:00,
2013-01-26 03:52:00,25.9,21.2,29.85,North,360,5.0,5.0,82,0.00,CLR,CLR,0.00,WeatherDisplay:10.34,2013-01-26 10:52:00,
2013-01-26 03:57:00,26.1,21.4,29.85,North,355,10.0,10.0,82,0.00,CLR,CLR,0.00,WeatherDisplay:10.34,2013-01-26 10:57:00,
2013-01-26 04:02:00,26.4,21.7,29.85,WNW,297,0.0,0.0,82,0.00,CLR,CLR,0.00,WeatherDisplay:10.34,2013-01-26 11:02:00,
2013-01-26 04:07:00,26.4,21.4,29.83,NE,43,6.0,6.0,81,0.00,CLR,CLR,0.00,WeatherDisplay:10.34,2013-01-26 11:07:00,
2013-01-26 04:12:00,26.5,21.5,29.83,West,272,2.0,2.0,81,0.00,CLR,CLR,0.00,WeatherDisplay:10.34,2013-01-26 11:12:00,
2013-01-26 04:17:00,26.4,21.4,29.83,WNW,296,0.0,1.0,81,0.00,CLR,CLR,0.00,WeatherDisplay:10.34,2013-01-26 11:17:00,
2013-01-26 04:22:00,26.2,20.9,29.84,NE,41,3.0,3.0,80,0.00,CLR,CLR,0.00,WeatherDisplay:10.34,2013-01-26 11:22:00,
2013-01-26 04:27:00,26.2,21.2,29.84,North,355,5.0,5.0,81,0.00,CLR,CLR,0.00,WeatherDisplay:10.34,2013-01-26 11:27:00,
2013-01-26 04:32:00,26.1,21.1,29.84,North,355,0.0,0.0,81,0.00,CLR,CLR,0.00,WeatherDisplay:10.34,2013-01-26 11:32:00,
2013-01-26 04:37:00,26.0,21.0,29.84,North,355,0.0,0.0,81,0.00,CLR,CLR,0.00,WeatherDisplay:10.34,2013-01-26 11:37:00,
2013-01-26 04:42:00,25.8,20.5,29.84,North,355,1.0,1.0,80,0.00,CLR,CLR,0.00,WeatherDisplay:10.34,2013-01-26 11:42:00,
2013-01-26 04:47:00,25.6,20.6,29.84,NW,319,1.0,1.0,81,0.00,CLR,CLR,0.00,WeatherDisplay:10.34,2013-01-26 11:47:00,
2013-01-26 04:52:00,25.6,20.9,29.84,NW,319,1.0,2.0,82,0.00,CLR,CLR,0.00,WeatherDisplay:10.34,2013-01-26 11:52:00,
2013-01-26 04:57:00,25.6,20.9,29.84,NW,319,2.0,2.0,82,0.00,CLR,CLR,0.00,WeatherDisplay:10.34,2013-01-26 11:57:00,
2013-01-26 05:02:00,25.6,20.9,29.84,NW,319,0.0,0.0,82,0.00,CLR,CLR,0.00,WeatherDisplay:10.34,2013-01-26 12:02:00,
2013-01-26 05:07:00,25.7,21.0,29.85,NW,319,1.0,1.0,82,0.00,CLR,CLR,0.00,WeatherDisplay:10.34,2013-01-26 12:07:00,
2013-01-26 05:12:00,25.8,21.1,29.85,North,350,5.0,5.0,82,0.00,CLR,CLR,0.00,WeatherDisplay:10.34,2013-01-26 12:12:00,
2013-01-26 05:17:00,25.9,21.2,29.85,North,349,8.0,8.0,82,0.00,CLR,CLR,0.00,WeatherDisplay:10.34,2013-01-26 12:17:00,
2013-01-26 05:22:00,25.8,20.8,29.85,NNW,347,7.0,7.0,81,0.00,CLR,CLR,0.00,WeatherDisplay:10.34,2013-01-26 12:22:00,
2013-01-26 05:27:00,25.5,20.8,29.85,NNW,348,3.0,3.0,82,0.00,CLR,CLR,0.00,WeatherDisplay:10.34,2013-01-26 12:27:00,
2013-01-26 05:32:00,25.4,20.7,29.85,NNW,348,1.0,1.0,82,0.00,CLR,CLR,0.00,WeatherDisplay:10.34,2013-01-26 12:32:00,
2013-01-26 05:37:00,25.3,20.6,29.85,NNW,340,1.0,1.0,82,0.00,CLR,CLR,0.00,WeatherDisplay:10.34,2013-01-26 12:37:00,
2013-01-26 05:42:00,25.3,20.6,29.85,NNW,340,3.0,3.0,82,0.00,CLR,CLR,0.00,WeatherDisplay:10.34,2013-01-26 12:42:00,
2013-01-26 05:47:00,25.3,20.6,29.84,NNW,340,0.0,2.0,82,0.00,CLR,CLR,0.00,WeatherDisplay:10.34,2013-01-26 12:47:00,
2013-01-26 05:52:00,25.3,20.6,29.84,NNW,340,2.0,2.0,82,0.00,CLR,CLR,0.00,WeatherDisplay:10.34,2013-01-26 12:52:00,
2013-01-26 05:57:00,25.3,20.6,29.84,NNW,346,0.0,0.0,82,0.00,CLR,CLR,0.00,WeatherDisplay:10.34,2013-01-26 12:57:00,
2013-01-26 06:02:00,25.2,20.5,29.84,NNW,346,1.0,2.0,82,0.00,CLR,CLR,0.00,WeatherDisplay:10.34,2013-01-26 13:02:00,
2013-01-26 06:08:00,24.9,19.9,29.84,South,175,6.0,6.0,81,0.00,CLR,CLR,0.00,WeatherDisplay:10.34,2013-01-26 13:08:00,
2013-01-26 06:13:00,24.9,20.2,29.83,WSW,237,4.0,4.0,82,0.00,CLR,CLR,0.00,WeatherDisplay:10.34,2013-01-26 13:13:00,
2013-01-26 06:18:00,25.0,20.3,29.83,WSW,237,3.0,3.0,82,0.00,CLR,CLR,0.00,WeatherDisplay:10.34,2013-01-26 13:18:00,
2013-01-26 06:23:00,25.1,20.7,29.84,WSW,237,0.0,1.0,83,0.00,CLR,CLR,0.00,WeatherDisplay:10.34,2013-01-26 13:23:00,
2013-01-26 06:28:00,25.0,20.3,29.84,WSW,237,0.0,0.0,82,0.00,CLR,CLR,0.00,WeatherDisplay:10.34,2013-01-26 13:28:00,
2013-01-26 06:33:00,24.7,19.7,29.84,SSW,206,4.0,4.0,81,0.00,CLR,CLR,0.00,WeatherDisplay:10.34,2013-01-26 13:33:00,
2013-01-26 06:38:00,24.0,19.0,29.84,South,178,9.0,9.0,81,0.00,CLR,CLR,0.00,WeatherDisplay:10.34,2013-01-26 13:38:00,
2013-01-26 06:43:00,23.8,19.1,29.83,SSW,198,11.0,11.0,82,0.00,CLR,CLR,0.00,WeatherDisplay:10.34,2013-01-26 13:43:00,
2013-01-26 06:48:00,24.0,19.6,29.83,SSW,211,1.0,1.0,83,0.00,CLR,CLR,0.00,WeatherDisplay:10.34,2013-01-26 13:48:00,
2013-01-26 06:53:00,24.8,20.7,29.84,NNW,338,11.0,11.0,84,0.00,CLR,CLR,0.00,WeatherDisplay:10.34,2013-01-26 13:53:00,
2013-01-26 06:58:00,25.2,21.0,29.84,SW,215,8.0,8.0,84,0.00,CLR,CLR,0.00,WeatherDisplay:10.34,2013-01-26 13:58:00,
2013-01-26 07:03:00,25.7,21.5,29.84,NNW,346,7.0,7.0,84,0.00,OVC,OVC,0.00,WeatherDisplay:10.34,2013-01-26 14:03:00,
2013-01-26 07:08:00,26.0,21.5,29.84,North,355,1.0,2.0,83,0.00,OVC,OVC,0.00,WeatherDisplay:10.34,2013-01-26 14:08:00,
2013-01-26 07:13:00,26.2,21.7,29.84,North,350,8.0,8.0,83,0.00,OVC,OVC,0.00,WeatherDisplay:10.34,2013-01-26 14:13:00,
2013-01-26 07:18:00,26.2,21.7,29.84,East,85,4.0,4.0,83,0.00,OVC,OVC,0.00,WeatherDisplay:10.34,2013-01-26 14:18:00,
2013-01-26 07:23:00,26.2,21.7,29.84,NNW,339,6.0,7.0,83,0.00,OVC,OVC,0.00,WeatherDisplay:10.34,2013-01-26 14:23:00,
2013-01-26 07:28:00,26.3,21.8,29.84,NNW,339,0.0,0.0,83,0.00,OVC,OVC,0.00,WeatherDisplay:10.34,2013-01-26 14:28:00,
2013-01-26 07:33:00,26.2,21.7,29.83,North,355,7.0,7.0,83,0.00,OVC,OVC,0.00,WeatherDisplay:10.34,2013-01-26 14:33:00,
2013-01-26 07:38:00,26.2,21.7,29.83,ENE,63,0.0,1.0,83,0.00,OVC,OVC,0.00,WeatherDisplay:10.34,2013-01-26 14:38:00,
2013-01-26 07:43:00,26.1,21.6,29.84,NNW,348,4.0,4.0,83,0.00,OVC,OVC,0.00,WeatherDisplay:10.34,2013-01-26 14:43:00,
2013-01-26 07:48:00,26.1,21.6,29.84,North,360,2.0,2.0,83,0.00,OVC,OVC,0.00,WeatherDisplay:10.34,2013-01-26 14:48:00,
2013-01-26 07:53:00,26.0,21.5,29.83,NNW,342,9.0,9.0,83,0.00,CLR,CLR,0.00,WeatherDisplay:10.34,2013-01-26 14:53:00,
2013-01-26 07:58:00,25.7,21.0,29.83,NNE,22,4.0,4.0,82,0.00,CLR,CLR,0.00,WeatherDisplay:10.34,2013-01-26 14:58:00,
2013-01-26 08:03:00,25.9,21.4,29.83,West,270,1.0,2.0,83,0.00,CLR,CLR,0.00,WeatherDisplay:10.34,2013-01-26 15:03:00,
2013-01-26 08:08:00,26.1,21.6,29.83,ENE,68,5.0,5.0,83,0.00,CLR,CLR,0.00,WeatherDisplay:10.34,2013-01-26 15:08:00,
2013-01-26 08:13:00,26.6,22.1,29.83,WNW,298,2.0,2.0,83,0.00,CLR,CLR,0.00,WeatherDisplay:10.34,2013-01-26 15:13:00,
2013-01-26 08:18:00,26.9,22.4,29.83,NE,47,7.0,7.0,83,0.00,CLR,CLR,0.00,WeatherDisplay:10.34,2013-01-26 15:18:00,
2013-01-26 08:23:00,27.2,22.4,29.83,NW,317,1.0,1.0,82,0.00,CLR,CLR,0.00,WeatherDisplay:10.34,2013-01-26 15:23:00,
2013-01-26 08:28:00,27.8,23.0,29.83,NNW,333,3.0,3.0,82,0.00,CLR,CLR,0.00,WeatherDisplay:10.34,2013-01-26 15:28:00,
2013-01-26 08:33:00,28.2,23.4,29.83,North,11,0.0,1.0,82,0.00,SCT,SCT,0.00,WeatherDisplay:10.34,2013-01-26 15:33:00,
2013-01-26 08:38:00,28.4,23.3,29.83,North,355,2.0,2.0,81,0.00,OVC,OVC,0.00,WeatherDisplay:10.34,2013-01-26 15:38:00,
2013-01-26 08:43:00,28.5,23.4,29.83,North,355,2.0,2.0,81,0.00,OVC,OVC,0.00,WeatherDisplay:10.34,2013-01-26 15:43:00,
2013-01-26 08:48:00,28.7,23.6,29.83,North,355,1.0,1.0,81,0.00,OVC,OVC,0.00,WeatherDisplay:10.34,2013-01-26 15:48:00,
2013-01-26 08:53:00,28.8,23.4,29.83,North,355,0.0,0.0,80,0.00,OVC,OVC,0.00,WeatherDisplay:10.34,2013-01-26 15:53:00,
2013-01-26 08:58:00,28.8,23.4,29.83,North,355,2.0,2.0,80,0.00,OVC,OVC,0.00,WeatherDisplay:10.34,2013-01-26 15:58:00,
2013-01-26 09:03:00,28.9,23.5,29.83,North,355,0.0,0.0,80,0.00,OVC,OVC,0.00,WeatherDisplay:10.34,2013-01-26 16:03:00,
2013-01-26 09:08:00,29.0,23.3,29.83,North,355,2.0,2.0,79,0.00,OVC,OVC,0.00,WeatherDisplay:10.34,2013-01-26 16:08:00,
2013-01-26 09:13:00,29.1,23.4,29.83,North,355,2.0,2.0,79,0.00,OVC,OVC,0.00,WeatherDisplay:10.34,2013-01-26 16:13:00,
2013-01-26 09:18:00,29.2,23.5,29.84,North,355,3.0,3.0,79,0.00,OVC,OVC,0.00,WeatherDisplay:10.34,2013-01-26 16:18:00,
2013-01-26 09:23:00,29.3,23.6,29.83,North,355,3.0,3.0,79,0.00,OVC,OVC,0.00,WeatherDisplay:10.34,2013-01-26 16:23:00,
2013-01-26 09:28:00,29.4,23.4,29.83,North,355,3.0,3.0,78,0.00,OVC,OVC,0.00,WeatherDisplay:10.34,2013-01-26 16:28:00,
2013-01-26 09:33:00,29.4,23.4,29.83,North,355,2.0,2.0,78,0.00,OVC,OVC,0.00,WeatherDisplay:10.34,2013-01-26 16:33:00,
2013-01-26 09:38:00,29.5,23.5,29.83,North,355,0.0,1.0,78,0.00,OVC,OVC,0.00,WeatherDisplay:10.34,2013-01-26 16:38:00,
2013-01-26 09:43:00,29.6,23.6,29.84,North,355,3.0,3.0,78,0.00,BKN,BKN,0.00,WeatherDisplay:10.34,2013-01-26 16:43:00,
2013-01-26 09:48:00,29.9,24.2,29.84,North,355,3.0,3.0,79,0.00,OVC,OVC,0.00,WeatherDisplay:10.34,2013-01-26 16:48:00,
2013-01-26 09:53:00,30.1,24.1,29.84,NNE,30,2.0,2.0,78,0.00,SCT,SCT,0.00,WeatherDisplay:10.34,2013-01-26 16:53:00,
2013-01-26 09:58:00,30.4,24.4,29.84,NNW,341,1.0,2.0,78,0.00,FEW,FEW,0.00,WeatherDisplay:10.34,2013-01-26 16:58:00,
2013-01-26 10:03:00,30.8,24.4,29.84,North,351,4.0,4.0,77,0.00,SCT,SCT,0.00,WeatherDisplay:10.34,2013-01-26 17:03:00,
2013-01-26 10:08:00,31.3,24.9,29.84,North,350,6.0,7.0,77,0.00,SCT,SCT,0.00,WeatherDisplay:10.34,2013-01-26 17:08:00,
2013-01-26 10:13:00,31.8,25.1,29.84,NNE,22,5.0,5.0,76,0.00,FEW,FEW,0.00,WeatherDisplay:10.34,2013-01-26 17:13:00,
2013-01-26 10:18:00,32.2,25.2,29.84,NE,48,5.0,5.0,75,0.00,FEW,FEW,0.00,WeatherDisplay:10.34,2013-01-26 17:18:00,
2013-01-26 10:23:00,32.6,25.2,29.85,NNE,30,3.0,5.0,74,0.00,CLR,CLR,0.00,WeatherDisplay:10.34,2013-01-26 17:23:00,
2013-01-26 10:28:00,33.0,25.6,29.85,NNE,28,3.0,3.0,74,0.00,SCT,SCT,0.00,WeatherDisplay:10.34,2013-01-26 17:28:00,
2013-01-26 10:33:00,33.4,25.7,29.85,NNE,21,2.0,3.0,73,0.00,SCT,SCT,0.00,WeatherDisplay:10.34,2013-01-26 17:33:00,
2013-01-26 10:38:00,33.8,25.4,29.85,NNE,25,4.0,7.0,71,0.00,SCT,SCT,0.00,WeatherDisplay:10.34,2013-01-26 17:38:00,
2013-01-26 10:43:00,34.3,25.9,29.84,NNE,26,2.0,8.0,71,0.00,SCT,SCT,0.00,WeatherDisplay:10.34,2013-01-26 17:43:00,
2013-01-26 10:48:00,35.0,26.2,29.84,NNE,28,6.0,7.0,70,0.00,CLR,CLR,0.00,WeatherDisplay:10.34,2013-01-26 17:48:00,
2013-01-26 10:53:00,35.6,25.7,29.83,NE,44,1.0,1.0,67,0.00,FEW,FEW,0.00,WeatherDisplay:10.34,2013-01-26 17:53:00,
2013-01-26 10:58:00,35.7,25.4,29.83,NNE,32,6.0,7.0,66,0.00,SCT,SCT,0.00,WeatherDisplay:10.34,2013-01-26 17:58:00,
2013-01-26 11:03:00,35.7,25.4,29.83,NE,36,1.0,2.0,66,0.00,CLR,CLR,0.00,WeatherDisplay:10.34,2013-01-26 18:03:00,
2013-01-26 11:08:00,35.9,25.6,29.83,ENE,69,8.0,8.0,66,0.00,FEW,FEW,0.00,WeatherDisplay:10.34,2013-01-26 18:08:00,
2013-01-26 11:13:00,36.3,26.0,29.83,NNE,22,8.0,8.0,66,0.00,FEW,FEW,0.00,WeatherDisplay:10.34,2013-01-26 18:13:00,
2013-01-26 11:18:00,36.8,26.1,29.83,NE,53,7.0,7.0,65,0.00,FEW,FEW,0.00,WeatherDisplay:10.34,2013-01-26 18:18:00,
2013-01-26 11:23:00,37.3,26.2,29.83,NNE,29,7.0,7.0,64,0.00,CLR,CLR,0.00,WeatherDisplay:10.34,2013-01-26 18:23:00,
2013-01-26 11:28:00,37.7,26.2,29.83,NE,34,6.0,7.0,63,0.00,SCT,SCT,0.00,WeatherDisplay:10.34,2013-01-26 18:28:00,
2013-01-26 11:33:00,37.6,25.7,29.83,ENE,66,3.0,5.0,62,0.00,SCT,SCT,0.00,WeatherDisplay:10.34,2013-01-26 18:33:00,
2013-01-26 11:38:00,37.4,25.2,29.83,NE,53,1.0,3.0,61,0.00,SCT,SCT,0.00,WeatherDisplay:10.34,2013-01-26 18:38:00,
2013-01-26 11:43:00,37.3,25.1,29.83,NE,44,5.0,5.0,61,0.00,FEW,FEW,0.00,WeatherDisplay:10.34,2013-01-26 18:43:00,
2013-01-26 11:48:00,37.2,25.0,29.83,NE,39,5.0,7.0,61,0.00,FEW,FEW,0.00,WeatherDisplay:10.34,2013-01-26 18:48:00,
2013-01-26 11:53:00,37.0,25.2,29.82,NE,42,4.0,4.0,62,0.00,FEW,FEW,0.00,WeatherDisplay:10.34,2013-01-26 18:53:00,
2013-01-26 11:58:00,37.0,25.6,29.82,North,360,5.0,7.0,63,0.00,SCT,SCT,0.00,WeatherDisplay:10.34,2013-01-26 18:58:00,
2013-01-26 12:03:00,37.2,25.4,29.82,ENE,72,7.0,7.0,62,0.00,CLR,CLR,0.00,WeatherDisplay:10.34,2013-01-26 19:03:00,
2013-01-26 12:08:00,37.4,25.9,29.80,NE,53,5.0,5.0,63,0.00,SCT,SCT,0.00,WeatherDisplay:10.34,2013-01-26 19:08:00,
2013-01-26 12:13:00,37.9,26.0,29.80,NNE,24,4.0,5.0,62,0.00,FEW,FEW,0.00,WeatherDisplay:10.34,2013-01-26 19:13:00,
2013-01-26 12:18:00,38.8,26.5,29.80,NE,42,2.0,2.0,61,0.00,CLR,CLR,0.00,WeatherDisplay:10.34,2013-01-26 19:18:00,
2013-01-26 12:23:00,39.9,26.7,29.79,NE,46,8.0,8.0,59,0.00,CLR,CLR,0.00,WeatherDisplay:10.34,2013-01-26 19:23:00,
2013-01-26 12:28:00,40.4,26.8,29.79,ENE,76,1.0,3.0,58,0.00,CLR,CLR,0.00,WeatherDisplay:10.34,2013-01-26 19:28:00,
2013-01-26 12:33:00,41.0,26.9,29.79,ENE,69,8.0,9.0,57,0.00,FEW,FEW,0.00,WeatherDisplay:10.34,2013-01-26 19:33:00,
2013-01-26 12:38:00,41.1,26.1,29.79,NE,41,7.0,8.0,55,0.00,CLR,CLR,0.00,WeatherDisplay:10.34,2013-01-26 19:38:00,
2013-01-26 12:43:00,41.1,25.7,29.78,East,92,10.0,10.0,54,0.00,SCT,SCT,0.00,WeatherDisplay:10.34,2013-01-26 19:43:00,
2013-01-26 12:48:00,41.2,25.8,29.78,NE,55,9.0,10.0,54,0.00,CLR,CLR,0.00,WeatherDisplay:10.34,2013-01-26 19:48:00,
2013-01-26 12:53:00,41.1,24.8,29.77,East,88,5.0,9.0,52,0.00,CLR,CLR,0.00,WeatherDisplay:10.34,2013-01-26 19:53:00,
2013-01-26 12:58:00,40.7,24.9,29.77,ENE,70,6.0,7.0,53,0.00,SCT,SCT,0.00,WeatherDisplay:10.34,2013-01-26 19:58:00,
2013-01-26 13:03:00,40.4,24.6,29.77,ENE,73,9.0,9.0,53,0.00,SCT,SCT,0.00,WeatherDisplay:10.34,2013-01-26 20:03:00,
2013-01-26 13:08:00,40.1,24.8,29.77,ENE,65,5.0,7.0,54,0.00,CLR,CLR,0.00,WeatherDisplay:10.34,2013-01-26 20:08:00,
2013-01-26 13:13:00,40.9,25.1,29.76,ENE,69,5.0,8.0,53,0.00,CLR,CLR,0.00,WeatherDisplay:10.34,2013-01-26 20:13:00,
2013-01-26 13:18:00,41.6,25.7,29.76,East,84,6.0,8.0,53,0.00,CLR,CLR,0.00,WeatherDisplay:10.34,2013-01-26 20:18:00,
2013-01-26 13:23:00,42.3,25.9,29.75,North,360,2.0,3.0,52,0.00,CLR,CLR,0.00,WeatherDisplay:10.34,2013-01-26 20:23:00,
2013-01-26 13:28:00,42.7,26.3,29.75,NE,56,4.0,7.0,52,0.00,CLR,CLR,0.00,WeatherDisplay:10.34,2013-01-26 20:28:00,
2013-01-26 13:33:00,42.6,25.7,29.75,ENE,63,5.0,5.0,51,0.00,CLR,CLR,0.00,WeatherDisplay:10.34,2013-01-26 20:33:00,
2013-01-26 13:38:00,42.6,25.7,29.75,NE,40,6.0,8.0,51,0.00,CLR,CLR,0.00,WeatherDisplay:10.34,2013-01-26 20:38:00,
2013-01-26 13:43:00,42.9,26.0,29.74,ENE,57,5.0,8.0,51,0.00,CLR,CLR,0.00,WeatherDisplay:10.34,2013-01-26 20:43:00,
2013-01-26 13:48:00,43.0,26.1,29.74,SE,133,5.0,5.0,51,0.00,CLR,CLR,0.00,WeatherDisplay:10.34,2013-01-26 20:48:00,
2013-01-26 13:53:00,43.0,26.1,29.74,ENE,78,6.0,8.0,51,0.00,CLR,CLR,0.00,WeatherDisplay:10.34,2013-01-26 20:53:00,
2013-01-26 13:58:00,42.8,25.9,29.74,ESE,110,6.0,7.0,51,0.00,SCT,SCT,0.00,WeatherDisplay:10.34,2013-01-26 20:58:00,
2013-01-26 14:03:00,42.5,25.6,29.74,ENE,71,7.0,8.0,51,0.00,CLR,CLR,0.00,WeatherDisplay:10.34,2013-01-26 21:03:00,
2013-01-26 14:08:00,42.7,25.8,29.74,East,91,4.0,4.0,51,0.00,CLR,CLR,0.00,WeatherDisplay:10.34,2013-01-26 21:08:00,
2013-01-26 14:13:00,42.7,25.3,29.73,East,80,5.0,8.0,50,0.00,SCT,SCT,0.00,WeatherDisplay:10.34,2013-01-26 21:13:00,
2013-01-26 14:18:00,42.4,25.1,29.73,East,82,3.0,3.0,50,0.00,BKN,BKN,0.00,WeatherDisplay:10.34,2013-01-26 21:18:00,
2013-01-26 14:23:00,42.1,25.3,29.73,ESE,115,5.0,5.0,51,0.00,BKN,BKN,0.00,WeatherDisplay:10.34,2013-01-26 21:23:00,
2013-01-26 14:28:00,41.8,25.0,29.73,East,88,2.0,3.0,51,0.00,CLR,CLR,0.00,WeatherDisplay:10.34,2013-01-26 21:28:00,
2013-01-26 14:33:00,41.9,26.0,29.72,ESE,121,3.0,3.0,53,0.00,CLR,CLR,0.00,WeatherDisplay:10.34,2013-01-26 21:33:00,
2013-01-26 14:38:00,42.1,25.7,29.72,ESE,106,5.0,5.0,52,0.00,BKN,BKN,0.00,WeatherDisplay:10.34,2013-01-26 21:38:00,
2013-01-26 14:43:00,42.3,26.4,29.71,East,99,2.0,2.0,53,0.00,CLR,CLR,0.00,WeatherDisplay:10.34,2013-01-26 21:43:00,
2013-01-26 14:48:00,42.8,25.9,29.71,SSE,153,3.0,3.0,51,0.00,SCT,SCT,0.00,WeatherDisplay:10.34,2013-01-26 21:48:00,
2013-01-26 14:53:00,43.2,26.7,29.71,SE,134,0.0,1.0,52,0.00,CLR,CLR,0.00,WeatherDisplay:10.34,2013-01-26 21:53:00,
2013-01-26 14:58:00,43.7,26.7,29.71,SSE,153,3.0,3.0,51,0.00,CLR,CLR,0.00,WeatherDisplay:10.34,2013-01-26 21:58:00,
2013-01-26 15:03:00,44.0,27.0,29.71,SSE,155,4.0,5.0,51,0.00,CLR,CLR,0.00,WeatherDisplay:10.34,2013-01-26 22:03:00,
2013-01-26 15:08:00,44.3,27.3,29.71,SSE,160,0.0,1.0,51,0.00,CLR,CLR,0.00,WeatherDisplay:10.34,2013-01-26 22:08:00,
2013-01-26 15:13:00,44.8,27.8,29.70,East,80,0.0,1.0,51,0.00,CLR,CLR,0.00,WeatherDisplay:10.34,2013-01-26 22:13:00,
2013-01-26 15:18:00,45.3,28.2,29.70,ENE,67,3.0,3.0,51,0.00,CLR,CLR,0.00,WeatherDisplay:10.34,2013-01-26 22:18:00,
2013-01-26 15:23:00,45.7,28.6,29.70,NE,49,4.0,5.0,51,0.00,CLR,CLR,0.00,WeatherDisplay:10.34,2013-01-26 22:23:00,
2013-01-26 15:28:00,46.1,28.5,29.70,ENE,78,5.0,7.0,50,0.00,CLR,CLR,0.00,WeatherDisplay:10.34,2013-01-26 22:28:00,
2013-01-26 15:34:00,46.3,27.7,29.70,ENE,61,2.0,2.0,48,0.00,CLR,CLR,0.00,WeatherDisplay:10.34,2013-01-26 22:34:00,
2013-01-26 15:39:00,46.3,27.2,29.70,ESE,105,5.0,5.0,47,0.00,CLR,CLR,0.00,WeatherDisplay:10.34,2013-01-26 22:39:00,
2013-01-26 15:44:00,46.1,27.5,29.70,East,82,6.0,8.0,48,0.00,CLR,CLR,0.00,WeatherDisplay:10.34,2013-01-26 22:44:00,
2013-01-26 15:49:00,45.9,27.8,29.70,East,83,3.0,3.0,49,0.00,BKN,BKN,0.00,WeatherDisplay:10.34,2013-01-26 22:49:00,
2013-01-26 15:54:00,45.5,27.4,29.70,ENE,78,3.0,3.0,49,0.00,OVC,OVC,0.00,WeatherDisplay:10.34,2013-01-26 22:54:00,
2013-01-26 15:59:00,45.1,26.6,29.70,ESE,105,4.0,4.0,48,0.00,OVC,OVC,0.00,WeatherDisplay:10.34,2013-01-26 22:59:00,
2013-01-26 16:04:00,44.6,26.6,29.70,East,82,3.0,3.0,49,0.00,BKN,BKN,0.00,WeatherDisplay:10.34,2013-01-26 23:04:00,
2013-01-26 16:09:00,44.3,26.8,29.70,East,79,0.0,1.0,50,0.00,BKN,BKN,0.00,WeatherDisplay:10.34,2013-01-26 23:09:00,
2013-01-26 16:14:00,44.1,26.6,29.69,East,79,0.0,0.0,50,0.00,BKN,BKN,0.00,WeatherDisplay:10.34,2013-01-26 23:14:00,
2013-01-26 16:19:00,43.8,26.3,29.69,East,79,2.0,2.0,50,0.00,CLR,CLR,0.00,WeatherDisplay:10.34,2013-01-26 23:19:00,
2013-01-26 16:24:00,43.8,26.8,29.68,NE,54,2.0,2.0,51,0.00,CLR,CLR,0.00,WeatherDisplay:10.34,2013-01-26 23:24:00,
2013-01-26 16:29:00,43.6,26.6,29.68,NE,54,2.0,2.0,51,0.00,FEW,FEW,0.00,WeatherDisplay:10.34,2013-01-26 23:29:00,
2013-01-26 16:34:00,43.4,26.5,29.68,NE,52,5.0,5.0,51,0.00,SCT,SCT,0.00,WeatherDisplay:10.34,2013-01-26 23:34:00,
2013-01-26 16:39:00,43.2,26.7,29.68,ENE,57,2.0,2.0,52,0.00,SCT,SCT,0.00,WeatherDisplay:10.34,2013-01-26 23:39:00,
2013-01-26 16:44:00,42.9,26.9,29.68,NE,34,4.0,5.0,53,0.00,SCT,SCT,0.00,WeatherDisplay:10.34,2013-01-26 23:44:00,
2013-01-26 16:49:00,42.5,27.0,29.68,NE,39,1.0,1.0,54,0.00,SCT,SCT,0.00,WeatherDisplay:10.34,2013-01-26 23:49:00,
2013-01-26 16:54:00,42.2,26.7,29.68,NE,46,4.0,4.0,54,0.00,SCT,SCT,0.00,WeatherDisplay:10.34,2013-01-26 23:54:00,
2013-01-26 16:59:00,41.8,26.8,29.68,ENE,59,0.0,1.0,55,0.00,SCT,SCT,0.00,WeatherDisplay:10.34,2013-01-26 23:59:00,
2013-01-26 17:04:00,41.7,26.7,29.68,ENE,59,1.0,2.0,55,0.00,CLR,CLR,0.00,WeatherDisplay:10.34,2013-01-27 00:04:00,
2013-01-26 17:09:00,41.5,27.0,29.68,ENE,59,1.0,1.0,56,0.00,OVC,OVC,0.00,WeatherDisplay:10.34,2013-01-27 00:09:00,
2013-01-26 17:14:00,41.3,27.2,29.67,NNE,24,3.0,3.0,57,0.00,OVC,OVC,0.00,WeatherDisplay:10.34,2013-01-27 00:14:00,
2013-01-26 17:19:00,40.9,27.2,29.67,NNE,29,0.0,1.0,58,0.00,OVC,OVC,0.00,WeatherDisplay:10.34,2013-01-27 00:19:00,
2013-01-26 17:24:00,40.6,27.0,29.67,NNE,29,2.0,2.0,58,0.00,OVC,OVC,0.00,WeatherDisplay:10.34,2013-01-27 00:24:00,
2013-01-26 17:29:00,40.3,27.1,29.67,NNE,29,1.0,2.0,59,0.00,OVC,OVC,0.00,WeatherDisplay:10.34,2013-01-27 00:29:00,
2013-01-26 17:34:00,39.9,27.1,29.67,NNE,30,0.0,0.0,60,0.00,OVC,OVC,0.00,WeatherDisplay:10.34,2013-01-27 00:34:00,
2013-01-26 17:39:00,39.5,26.8,29.67,North,360,5.0,5.0,60,0.00,OVC,OVC,0.00,WeatherDisplay:10.34,2013-01-27 00:39:00,
2013-01-26 17:44:00,39.0,26.7,29.67,North,355,0.0,1.0,61,0.00,OVC,OVC,0.00,WeatherDisplay:10.34,2013-01-27 00:44:00,
2013-01-26 17:49:00,38.5,26.6,29.67,NNE,22,3.0,3.0,62,0.00,OVC,OVC,0.00,WeatherDisplay:10.34,2013-01-27 00:49:00,
2013-01-26 17:54:00,38.1,26.2,29.67,North,5,5.0,5.0,62,0.00,OVC,OVC,0.00,WeatherDisplay:10.34,2013-01-27 00:54:00,
2013-01-26 17:59:00,37.7,26.2,29.67,North,5,4.0,5.0,63,0.00,OVC,OVC,0.00,WeatherDisplay:10.34,2013-01-27 00:59:00,
2013-01-26 18:04:00,37.4,25.9,29.67,North,360,2.0,2.0,63,0.00,,,0.00,WeatherDisplay:10.34,2013-01-27 01:04:00,
2013-01-26 18:09:00,37.0,25.9,29.67,North,5,3.0,3.0,64,0.00,,,0.00,WeatherDisplay:10.34,2013-01-27 01:09:00,
2013-01-26 18:14:00,36.6,25.9,29.67,North,5,1.0,1.0,65,0.00,,,0.00,WeatherDisplay:10.34,2013-01-27 01:14:00,
2013-01-26 18:19:00,36.2,25.6,29.67,North,5,0.0,1.0,65,0.00,,,0.00,WeatherDisplay:10.34,2013-01-27 01:19:00,
2013-01-26 18:24:00,35.6,25.4,29.67,North,5,4.0,4.0,66,0.00,,,0.00,WeatherDisplay:10.34,2013-01-27 01:24:00,
2013-01-26 18:29:00,35.0,24.8,29.67,NNW,340,4.0,4.0,66,0.00,,,0.00,WeatherDisplay:10.34,2013-01-27 01:29:00,
2013-01-26 18:34:00,34.5,24.7,29.66,NNW,334,6.0,7.0,67,0.00,,,0.00,WeatherDisplay:10.34,2013-01-27 01:34:00,
2013-01-26 18:39:00,34.4,24.6,29.66,NNW,336,1.0,1.0,67,0.00,,,0.00,WeatherDisplay:10.34,2013-01-27 01:39:00,
2013-01-26 18:44:00,34.4,24.6,29.66,NNW,336,0.0,0.0,67,0.00,,,0.00,WeatherDisplay:10.34,2013-01-27 01:44:00,
2013-01-26 18:49:00,34.4,24.9,29.66,NNW,336,0.0,1.0,68,0.00,,,0.00,WeatherDisplay:10.34,2013-01-27 01:49:00,
2013-01-26 18:54:00,34.4,24.9,29.67,NNW,336,0.0,0.0,68,0.00,,,0.00,WeatherDisplay:10.34,2013-01-27 01:54:00,
2013-01-26 18:59:00,34.3,24.8,29.67,NNW,336,0.0,0.0,68,0.00,,,0.00,WeatherDisplay:10.34,2013-01-27 01:59:00,
2013-01-26 19:04:00,34.3,24.8,29.67,NNW,336,0.0,0.0,68,0.00,,,0.00,WeatherDisplay:10.34,2013-01-27 02:04:00,
2013-01-26 19:09:00,34.2,24.4,29.67,NNW,336,0.0,0.0,67,0.00,,,0.00,WeatherDisplay:10.34,2013-01-27 02:09:00,
2013-01-26 19:14:00,34.1,24.3,29.66,NNW,336,0.0,0.0,67,0.00,,,0.00,WeatherDisplay:10.34,2013-01-27 02:14:00,
2013-01-26 19:19:00,33.8,24.0,29.66,NNW,336,0.0,0.0,67,0.00,,,0.00,WeatherDisplay:10.34,2013-01-27 02:19:00,
2013-01-26 19:24:00,33.4,23.3,29.66,WSW,256,0.0,0.0,66,0.00,,,0.00,WeatherDisplay:10.34,2013-01-27 02:24:00,
2013-01-26 19:29:00,32.9,22.4,29.66,WSW,256,3.0,3.0,65,0.00,,,0.00,WeatherDisplay:10.34,2013-01-27 02:29:00,
2013-01-26 19:34:00,32.6,22.5,29.66,WSW,257,0.0,0.0,66,0.00,,,0.00,WeatherDisplay:10.34,2013-01-27 02:34:00,
2013-01-26 19:39:00,32.3,22.2,29.66,WSW,239,5.0,5.0,66,0.00,,,0.00,WeatherDisplay:10.34,2013-01-27 02:39:00,
2013-01-26 19:44:00,31.9,22.2,29.66,WSW,239,0.0,0.0,67,0.00,,,0.00,WeatherDisplay:10.34,2013-01-27 02:44:00,
2013-01-26 19:49:00,31.7,22.0,29.66,WSW,238,3.0,3.0,67,0.00,,,0.00,WeatherDisplay:10.34,2013-01-27 02:49:00,
2013-01-26 19:54:00,31.4,21.3,29.66,WSW,238,0.0,0.0,66,0.00,,,0.00,WeatherDisplay:10.34,2013-01-27 02:54:00,
2013-01-26 19:59:00,31.2,21.2,29.66,WSW,238,0.0,0.0,66,0.00,,,0.00,WeatherDisplay:10.34,2013-01-27 02:59:00,
2013-01-26 20:04:00,31.0,21.3,29.66,WSW,238,3.0,3.0,67,0.00,,,0.00,WeatherDisplay:10.34,2013-01-27 03:04:00,
2013-01-26 20:09:00,30.7,21.0,29.65,WSW,238,0.0,0.0,67,0.00,,,0.00,WeatherDisplay:10.34,2013-01-27 03:09:00,
2013-01-26 20:14:00,30.3,20.3,29.65,WSW,238,2.0,2.0,66,0.00,,,0.00,WeatherDisplay:10.34,2013-01-27 03:14:00,
2013-01-26 20:19:00,30.0,20.4,29.65,WSW,238,0.0,0.0,67,0.00,,,0.00,WeatherDisplay:10.34,2013-01-27 03:19:00,
2013-01-26 20:24:00,29.7,20.4,29.65,WSW,238,2.0,2.0,68,0.00,,,0.00,WeatherDisplay:10.34,2013-01-27 03:24:00,
2013-01-26 20:29:00,29.4,20.1,29.65,SW,221,3.0,3.0,68,0.00,,,0.00,WeatherDisplay:10.34,2013-01-27 03:29:00,
2013-01-26 20:34:00,29.2,20.6,29.65,SW,233,2.0,2.0,70,0.00,,,0.00,WeatherDisplay:10.34,2013-01-27 03:34:00,
2013-01-26 20:39:00,29.0,20.4,29.65,SW,233,7.0,7.0,70,0.00,,,0.00,WeatherDisplay:10.34,2013-01-27 03:39:00,
2013-01-26 20:45:00,29.0,21.1,29.65,SW,234,0.0,0.0,72,0.00,,,0.00,WeatherDisplay:10.34,2013-01-27 03:45:00,
2013-01-26 20:50:00,29.1,21.5,29.64,SW,234,4.0,4.0,73,0.00,,,0.00,WeatherDisplay:10.34,2013-01-27 03:50:00,
2013-01-26 20:55:00,29.3,22.0,29.64,SW,233,1.0,1.0,74,0.00,,,0.00,WeatherDisplay:10.34,2013-01-27 03:55:00,
2013-01-26 21:00:00,29.4,22.1,29.64,SW,234,3.0,3.0,74,0.00,,,0.00,WeatherDisplay:10.34,2013-01-27 04:00:00,
2013-01-26 21:05:00,29.3,21.7,29.64,WSW,239,4.0,5.0,73,0.00,,,0.00,WeatherDisplay:10.34,2013-01-27 04:05:00,
2013-01-26 21:10:00,29.2,21.3,29.64,WSW,239,2.0,2.0,72,0.00,,,0.00,WeatherDisplay:10.34,2013-01-27 04:10:00,
2013-01-26 21:15:00,28.9,20.7,29.64,WSW,239,3.0,3.0,71,0.00,,,0.00,WeatherDisplay:10.34,2013-01-27 04:15:00,
2013-01-26 21:20:00,28.7,20.5,29.64,WSW,238,1.0,0.0,71,0.00,,,0.00,WeatherDisplay:10.34,2013-01-27 04:20:00,
2013-01-26 21:25:00,28.3,20.1,29.64,WSW,238,0.0,0.0,71,0.00,,,0.00,WeatherDisplay:10.34,2013-01-27 04:25:00,
2013-01-26 21:30:00,28.1,19.9,29.64,WSW,239,0.0,0.0,71,0.00,,,0.00,WeatherDisplay:10.34,2013-01-27 04:30:00,
2013-01-26 21:35:00,28.0,19.8,29.64,WSW,239,0.0,0.0,71,0.00,,,0.00,WeatherDisplay:10.34,2013-01-27 04:35:00,
2013-01-26 21:40:00,27.8,19.9,29.64,WSW,247,3.0,5.0,72,0.00,CLR,CLR,0.00,WeatherDisplay:10.34,2013-01-27 04:40:00,
2013-01-26 21:45:00,27.7,20.5,29.64,WSW,238,0.0,0.0,74,0.00,,,0.00,WeatherDisplay:10.34,2013-01-27 04:45:00,
2013-01-26 21:50:00,27.7,20.8,29.64,WSW,238,0.0,0.0,75,0.00,,,0.00,WeatherDisplay:10.34,2013-01-27 04:50:00,
2013-01-26 21:55:00,27.6,20.7,29.64,WSW,239,0.0,1.0,75,0.00,,,0.00,WeatherDisplay:10.34,2013-01-27 04:55:00,
2013-01-26 22:00:00,27.5,20.6,29.64,WSW,239,0.0,0.0,75,0.00,,,0.00,WeatherDisplay:10.34,2013-01-27 05:00:00,
2013-01-26 22:02:00,27.5,20.6,29.64,WSW,239,0.0,0.0,75,0.00,,,0.00,WeatherDisplay:10.34,2013-01-27 05:02:00,
2013-01-26 22:03:00,27.5,20.6,29.64,WSW,239,1.0,2.0,75,0.00,,,0.00,WeatherDisplay:10.34,2013-01-27 05:03:00,
2013-01-26 22:09:00,27.5,20.9,29.64,WSW,239,0.0,0.0,76,0.00,,,0.00,WeatherDisplay:10.34,2013-01-27 05:09:00,
2013-01-26 22:14:00,27.4,20.8,29.63,WSW,238,0.0,0.0,76,0.00,,,0.00,WeatherDisplay:10.34,2013-01-27 05:14:00,
2013-01-26 22:19:00,27.3,20.7,29.63,WSW,238,0.0,1.0,76,0.00,,,0.00,WeatherDisplay:10.34,2013-01-27 05:19:00,
2013-01-26 22:24:00,27.2,20.6,29.64,WSW,238,0.0,0.0,76,0.00,,,0.00,WeatherDisplay:10.34,2013-01-27 05:24:00,
2013-01-26 22:29:00,27.0,20.4,29.63,WSW,238,0.0,1.0,76,0.00,,,0.00,WeatherDisplay:10.34,2013-01-27 05:29:00,
2013-01-26 22:34:00,26.9,20.3,29.63,WSW,238,0.0,0.0,76,0.00,,,0.00,WeatherDisplay:10.34,2013-01-27 05:34:00,
2013-01-26 22:39:00,26.8,20.2,29.63,WSW,238,0.0,1.0,76,0.00,,,0.00,WeatherDisplay:10.34,2013-01-27 05:39:00,
2013-01-26 22:44:00,26.6,20.1,29.63,WSW,238,2.0,2.0,76,0.00,,,0.00,WeatherDisplay:10.34,2013-01-27 05:44:00,
2013-01-26 22:49:00,26.5,20.0,29.63,WSW,238,0.0,0.0,76,0.00,,,0.00,WeatherDisplay:10.34,2013-01-27 05:49:00,
2013-01-26 22:54:00,26.2,19.4,29.63,WSW,238,1.0,2.0,75,0.00,,,0.00,WeatherDisplay:10.34,2013-01-27 05:54:00,
2013-01-26 22:59:00,26.0,19.2,29.63,WSW,239,0.0,0.0,75,0.00,,,0.00,WeatherDisplay:10.34,2013-01-27 05:59:00,
2013-01-26 23:04:00,25.9,19.1,29.64,WSW,238,2.0,2.0,75,0.00,,,0.00,WeatherDisplay:10.34,2013-01-27 06:04:00,
2013-01-26 23:09:00,25.7,19.2,29.64,WSW,239,0.0,1.0,76,0.00,,,0.00,WeatherDisplay:10.34,2013-01-27 06:09:00,
2013-01-26 23:14:00,25.6,19.1,29.64,WSW,239,0.0,0.0,76,0.00,,,0.00,WeatherDisplay:10.34,2013-01-27 06:14:00,
2013-01-26 23:19:00,25.5,19.0,29.64,WSW,239,0.0,0.0,76,0.00,,,0.00,WeatherDisplay:10.34,2013-01-27 06:19:00,
2013-01-26 23:24:00,25.3,18.8,29.63,SSW,213,6.0,7.0,76,0.00,,,0.00,WeatherDisplay:10.34,2013-01-27 06:24:00,
2013-01-26 23:29:00,25.2,19.0,29.63,SSW,213,0.0,0.0,77,0.00,,,0.00,WeatherDisplay:10.34,2013-01-27 06:29:00,
2013-01-26 23:34:00,25.3,19.4,29.63,WSW,254,4.0,4.0,78,0.00,,,0.00,WeatherDisplay:10.34,2013-01-27 06:34:00,
2013-01-26 23:39:00,25.5,19.9,29.63,WSW,254,0.0,1.0,79,0.00,,,0.00,WeatherDisplay:10.34,2013-01-27 06:39:00,
2013-01-26 23:44:00,25.7,20.4,29.64,West,271,1.0,1.0,80,0.00,,,0.00,WeatherDisplay:10.34,2013-01-27 06:44:00,
2013-01-26 23:49:00,26.2,21.2,29.64,West,271,2.0,2.0,81,0.00,,,0.00,WeatherDisplay:10.34,2013-01-27 06:49:00,
2013-01-26 23:54:00,26.3,21.0,29.63,West,271,1.0,1.0,80,0.00,,,0.00,WeatherDisplay:10.34,2013-01-27 06:54:00,
2013-01-26 23:59:00,26.3,20.7,29.63,West,271,0.0,0.0,79,0.00,,,0.00,WeatherDisplay:10.34,2013-01-27 06:59:00,